Time;durP1;ratioP1;P1;durP2;ratioP2;P2;SDS_P1;SDS_P2;PMS_P1;PMS_P2;Temp;Humidity;BMP_temperature;BMP_pressure;BME280_temperature;BME280_humidity;BME280_pressure;Samples;Min_cycle;Max_cycle;Signal;HPM_P1;HPM_P2
2022/11/26 00:05:19;;;;;;;;;;;102.90;2227.20;;;;;;6279122;22;20372;-89
2022/11/26 02:05:29;;;;;;;41.58;25.83;;;77.50;2227.20;;;;;;6282783;22;20049;-82
2022/11/26 02:07:58;;;;;;;46.72;26.23;;;77.50;2227.20;;;;;;6265248;22;20004;-81
2022/11/26 02:10:25;;;;;;;47.90;29.02;;;77.40;2227.20;;;;;;6263664;22;20014;-82
2022/11/26 02:13:34;;;;;;;52.13;31.63;;;77.50;2227.20;;;;;;6261926;22;20014;-82
2022/11/26 02:16:11;;;;;;;39.22;25.05;;;77.40;2227.20;;;;;;6269019;22;20351;-83
2022/11/26 02:18:44;;;;;;;41.80;26.35;;;77.40;2227.20;;;;;;6252050;22;20030;-82
2022/11/26 06:40:11;;;;;;;96.30;49.15;;;52.00;2227.20;;;;;;6331196;22;20176;-80
2022/11/26 06:42:43;;;;;;;84.28;49.03;;;52.00;2227.20;;;;;;6325088;22;20485;-80
2022/11/26 06:45:51;;;;;;;66.10;39.53;;;76.80;2227.20;;;;;;6357562;22;20007;-81
2022/11/26 06:48:27;;;;;;;95.13;52.97;;;76.90;2227.20;;;;;;6357291;22;20011;-81
2022/11/26 06:51:05;;;;;;;115.75;61.78;;;76.80;2227.20;;;;;;6329127;22;20011;-81
2022/11/26 06:53:51;;;;;;;110.22;64.05;;;76.90;2227.20;;;;;;6324323;22;19999;-82
2022/11/26 06:56:38;;;;;;;111.65;62.40;;;76.90;2227.20;;;;;;6353917;22;19995;-79
2022/11/26 07:00:05;;;;;;;91.00;55.95;;;77.00;2227.20;;;;;;6329731;22;20006;-80
2022/11/26 07:02:55;;;;;;;81.32;55.95;;;77.00;2227.20;;;;;;6296155;22;20003;-80
2022/11/26 07:06:02;;;;;;;93.35;50.35;;;77.10;2227.20;;;;;;6318626;22;20034;-84
2022/11/26 07:13:03;;;;;;;68.60;44.25;;;77.10;2227.20;;;;;;6360333;22;20026;-81
2022/11/26 07:16:51;;;;;;;59.28;37.88;;;77.10;2227.20;;;;;;6237487;23;20000;-81
2022/11/26 09:48:03;;;;;;;62.45;43.13;;;128.50;2252.80;;;;;;6308458;22;20053;-88
2022/11/26 09:50:34;;;;;;;55.33;37.40;;;128.60;2252.80;;;;;;6280719;22;20011;-91
2022/11/26 09:53:18;;;;;;;48.88;35.22;;;128.80;2252.80;;;;;;6256381;22;20003;-90
2022/11/26 09:55:50;;;;;;;51.22;30.90;;;128.80;2252.80;;;;;;6280856;22;20324;-92
2022/11/26 09:58:37;;;;;;;37.78;27.83;;;128.90;2252.80;;;;;;6281705;22;20049;-90
2022/11/26 10:01:04;;;;;;;48.17;30.17;;;153.70;2252.80;;;;;;6281200;22;20428;-90
2022/11/26 10:03:36;;;;;;;43.25;27.92;;;154.00;2252.80;;;;;;6281266;22;20029;-90
2022/11/26 10:06:08;;;;;;;49.95;34.67;;;154.20;2252.80;;;;;;6281213;22;20003;-87
2022/11/26 10:09:00;;;;;;;44.80;32.70;;;154.40;2252.80;;;;;;6282601;22;20324;-88
2022/11/26 10:11:53;;;;;;;56.97;39.78;;;179.20;2252.80;;;;;;6282533;22;20011;-90
2022/11/26 10:14:28;;;;;;;54.90;37.00;;;179.20;2252.80;;;;;;6283038;22;20041;-88
2022/11/26 10:17:29;;;;;;;57.20;40.13;;;179.20;2252.80;;;;;;6286506;22;20003;-87
2022/11/26 10:20:32;;;;;;;64.45;45.97;;;179.30;2252.80;;;;;;6286841;22;20003;-87
2022/11/26 10:23:10;;;;;;;68.20;48.80;;;179.30;2252.80;;;;;;6283900;22;20007;-88
2022/11/26 10:25:45;;;;;;;60.55;41.70;;;179.30;2252.80;;;;;;6283530;22;20003;-88
2022/11/26 10:28:30;;;;;;;61.20;44.00;;;179.40;2252.80;;;;;;6283509;22;20010;-88
2022/11/26 10:31:01;;;;;;;52.75;39.33;;;179.40;2252.80;;;;;;6282918;22;20451;-87
2022/11/26 10:33:44;;;;;;;73.15;50.15;;;179.50;2252.80;;;;;;6282948;22;20011;-89
2022/11/26 10:36:21;;;;;;;64.50;47.65;;;179.40;2252.80;;;;;;6283598;22;19999;-87
2022/11/26 10:38:46;;;;;;;74.55;50.42;;;179.40;2252.80;;;;;;6282143;22;20003;-88
2022/11/26 10:41:13;;;;;;;79.75;55.05;;;179.50;2252.80;;;;;;6282270;22;20030;-89
2022/11/26 10:43:39;;;;;;;83.22;56.50;;;179.80;2252.80;;;;;;6282329;22;20054;-87
2022/11/26 10:46:05;;;;;;;90.43;57.65;;;180.00;2252.80;;;;;;6282109;22;20031;-90
2022/11/26 10:48:35;;;;;;;89.38;59.72;;;180.00;2252.80;;;;;;6282362;22;20006;-88
2022/11/26 10:51:15;;;;;;;91.60;62.78;;;180.10;2252.80;;;;;;6282586;22;20022;-89
2022/11/26 10:53:47;;;;;;;48.55;37.53;;;204.90;2252.80;;;;;;6282508;22;20421;-90
2022/11/26 10:56:18;;;;;;;36.17;25.87;;;205.00;2252.80;;;;;;6282688;22;20049;-89
2022/11/26 10:58:45;;;;;;;40.00;28.30;;;204.90;2252.80;;;;;;6282785;22;19995;-88
2022/11/26 11:01:14;;;;;;;43.90;31.73;;;205.00;2252.80;;;;;;6309270;22;20025;-90
2022/11/26 11:03:50;;;;;;;38.67;28.58;;;205.10;2252.80;;;;;;6309294;22;19991;-87
2022/11/26 11:06:19;;;;;;;31.90;23.75;;;205.20;2252.80;;;;;;6283939;22;19999;-89
2022/11/26 11:08:46;;;;;;;30.08;24.33;;;205.20;2252.80;;;;;;6284603;22;20003;-92
2022/11/26 11:11:31;;;;;;;29.38;21.90;;;205.30;2252.80;;;;;;6285082;22;20499;-90
2022/11/26 11:13:57;;;;;;;33.53;21.73;;;205.50;2252.80;;;;;;6282302;22;20073;-90
2022/11/26 11:16:25;;;;;;;33.72;23.38;;;230.40;2252.80;;;;;;6282805;22;20100;-91
2022/11/26 11:18:59;;;;;;;36.90;24.23;;;230.60;2252.80;;;;;;6282739;22;20003;-87
2022/11/26 11:21:35;;;;;;;35.53;22.75;;;230.90;2252.80;;;;;;6282757;22;20038;-91
2022/11/26 11:24:12;;;;;;;31.35;21.33;;;231.30;2252.80;;;;;;6282744;22;20003;-89
2022/11/26 11:26:44;;;;;;;39.88;27.60;;;231.30;2252.80;;;;;;6282573;22;20035;-91
2022/11/26 11:29:28;;;;;;;32.53;23.00;;;256.10;2252.80;;;;;;6282856;22;20003;-91
2022/11/26 11:31:56;;;;;;;34.70;25.45;;;256.40;2252.80;;;;;;6282305;22;20008;-90
2022/11/26 11:34:38;;;;;;;34.95;25.58;;;256.40;2252.80;;;;;;6282176;22;19999;-92
2022/11/26 11:37:19;;;;;;;40.50;26.90;;;256.50;2252.80;;;;;;6281990;22;19999;-90
2022/11/26 11:39:47;;;;;;;33.55;23.90;;;;;;;;;;6281901;22;20006;-91
2022/11/26 11:42:27;;;;;;;32.60;23.90;;;;;;;;;;6281541;22;19999;-92
2022/11/26 11:44:54;;;;;;;51.65;36.92;;;;;;;;;;6281169;22;20000;-91
2022/11/26 11:47:26;;;;;;;27.58;21.83;;;;;;;;;;6282405;22;20003;-90
2022/11/26 11:50:13;;;;;;;30.27;23.67;;;;;;;;;;6255151;22;20015;-90
2022/11/26 11:52:59;;;;;;;27.90;20.42;;;;;;;;;;6282702;22;20056;-90
2022/11/26 11:55:31;;;;;;;33.58;22.60;;;;;;;;;;6281991;22;20057;-91
2022/11/26 11:58:08;;;;;;;26.55;16.88;;;;;;;;;;6282117;22;19999;-91
2022/11/26 12:01:09;;;;;;;25.77;20.10;;;;;;;;;;6282369;22;20007;-90
2022/11/26 12:03:35;;;;;;;28.60;21.90;;;;;;;;;;6130050;23;20032;-90
2022/11/26 12:06:06;;;;;;;34.28;24.65;;;;;;;;;;6251378;22;20007;-90
2022/11/26 12:08:53;;;;;;;36.40;28.33;;;;;;;;;;6282011;22;20004;-92
2022/11/26 12:11:25;;;;;;;34.90;24.00;;;;;;;;;;6255913;22;20390;-87
2022/11/26 12:13:58;;;;;;;55.58;38.80;;;;;;;;;;6308885;22;20011;-90
2022/11/26 12:16:25;;;;;;;37.60;28.40;;;;;;;;;;6281614;22;20014;-90
2022/11/26 12:18:51;;;;;;;44.38;33.33;;;;;;;;;;6282166;22;20013;-90
2022/11/26 12:21:21;;;;;;;54.97;37.95;;;;;;;;;;6281958;22;20486;-88
2022/11/26 12:24:01;;;;;;;31.42;24.23;;;;;;;;;;6282397;22;20086;-91
2022/11/26 12:26:33;;;;;;;34.70;27.33;;;;;;;;;;6282229;22;20033;-91
2022/11/26 12:29:02;;;;;;;42.10;27.40;;;;;;;;;;6282050;22;20074;-88
2022/11/26 12:31:34;;;;;;;40.58;29.17;;;;;;;;;;6281942;22;20248;-89
2022/11/26 12:34:04;;;;;;;51.83;34.40;;;;;;;;;;6282362;22;20007;-91
2022/11/26 12:36:37;;;;;;;59.50;39.72;;;;;;;;;;6282333;22;20075;-90
2022/11/26 12:39:05;;;;;;;52.25;35.67;;;;;;;;;;6282381;22;20352;-92
2022/11/26 12:41:42;;;;;;;50.58;35.50;;;;;;;;;;6282428;22;20481;-92
2022/11/26 12:44:20;;;;;;;65.85;44.20;;;;;;;;;;6281956;22;20026;-91
2022/11/26 12:47:05;;;;;;;56.50;40.85;;;;;;;;;;6281692;22;20018;-94
2022/11/26 12:50:11;;;;;;;50.63;33.65;;;256.80;2252.80;;;;;;6281464;22;20061;-92
2022/11/26 12:52:58;;;;;;;47.50;34.83;;;256.60;2252.80;;;;;;6254319;22;20433;-90
2022/11/26 12:55:24;;;;;;;53.95;36.10;;;;;;;;;;6282537;22;20001;-91
2022/11/26 12:57:54;;;;;;;40.50;29.25;;;;;;;;;;6282561;22;20093;-92
2022/11/26 13:00:25;;;;;;;42.22;29.55;;;256.50;2252.80;;;;;;6282544;22;19999;-92
2022/11/26 13:02:51;;;;;;;42.28;29.88;;;256.30;2252.80;;;;;;6281845;22;20007;-92
2022/11/26 13:05:26;;;;;;;35.55;26.55;;;;;;;;;;6282036;22;20436;-92
2022/11/26 13:07:58;;;;;;;48.67;34.20;;;;;;;;;;6281879;22;20029;-92
2022/11/26 13:10:43;;;;;;;53.97;36.85;;;;;;;;;;6282285;22;20014;-90
2022/11/26 13:13:18;;;;;;;45.83;30.13;;;;;;;;;;6282060;22;20003;-91
2022/11/26 13:16:04;;;;;;;49.15;35.03;;;;;;;;;;6282233;22;20003;-90
2022/11/26 13:18:33;;;;;;;44.42;29.67;;;;;;;;;;6205727;22;20079;-90
2022/11/26 13:21:17;;;;;;;62.03;39.90;;;;;;;;;;6281973;22;20003;-90
2022/11/26 13:24:06;;;;;;;82.93;52.20;;;231.10;2252.80;;;;;;6282035;22;20031;-90
2022/11/26 13:26:35;;;;;;;78.03;49.25;;;;;;;;;;6281651;22;20010;-90
2022/11/26 13:29:20;;;;;;;39.80;27.27;;;;;;;;;;6281369;22;20004;-88
2022/11/26 13:31:57;;;;;;;41.28;28.50;;;;;;;;;;6281956;22;20030;-91
2022/11/26 13:34:30;;;;;;;62.20;38.75;;;;;;;;;;6281193;22;20004;-91
2022/11/26 13:37:06;;;;;;;63.25;39.45;;;;;;;;;;6281868;22;20437;-90
2022/11/26 13:39:38;;;;;;;48.47;31.42;;;;;;;;;;6281674;22;20003;-93
2022/11/26 13:42:23;;;;;;;33.03;22.35;;;;;;;;;;6282960;22;20003;-90
2022/11/26 13:44:55;;;;;;;29.48;19.40;;;;;;;;;;6283382;22;20003;-91
2022/11/26 13:47:39;;;;;;;42.47;27.00;;;;;;;;;;6284488;22;20456;-92
2022/11/26 13:50:08;;;;;;;43.08;27.08;;;;;;;;;;6283926;22;20034;-91
2022/11/26 13:52:37;;;;;;;44.47;27.77;;;;;;;;;;6283867;22;20086;-92
2022/11/26 13:55:07;;;;;;;50.40;27.25;;;;;;;;;;6283482;22;20003;-91
2022/11/26 13:57:41;;;;;;;55.08;33.40;;;;;;;;;;6283846;22;20038;-92
2022/11/26 14:00:08;;;;;;;76.45;44.03;;;;;;;;;;6284573;22;20090;-90
2022/11/26 14:02:35;;;;;;;93.22;53.90;;;;;;;;;;6283734;22;20121;-94
2022/11/26 14:05:02;;;;;;;86.40;49.58;;;;;;;;;;6283825;22;20038;-91
2022/11/26 14:07:29;;;;;;;97.80;57.53;;;;;;;;;;6283799;22;20000;-91
2022/11/26 14:09:59;;;;;;;80.05;48.53;;;;;;;;;;6283707;22;20054;-92
2022/11/26 14:13:02;;;;;;;110.07;63.35;;;230.90;2252.80;;;;;;6284000;22;20071;-92
2022/11/26 14:15:40;;;;;;;134.32;72.15;;;230.80;2252.80;;;;;;6284243;22;20015;-91
2022/11/26 14:18:14;;;;;;;143.90;84.85;;;230.80;2252.80;;;;;;6284014;22;20007;-93
2022/11/26 14:20:59;;;;;;;62.85;39.60;;;;;;;;;;6284175;22;20014;-92
2022/11/26 14:23:42;;;;;;;45.60;28.30;;;;;;;;;;6283726;22;19999;-92
2022/11/26 14:26:10;;;;;;;;;;;230.70;2252.80;;;;;;6284113;22;20027;-91
2022/11/26 14:28:36;;;;;;;60.45;37.78;;;230.60;2252.80;;;;;;6283742;22;20170;-91
2022/11/26 14:31:29;;;;;;;67.80;41.67;;;230.50;2252.80;;;;;;6283596;22;20425;-93
2022/11/26 14:33:59;;;;;;;57.15;39.00;;;230.50;2252.80;;;;;;6283940;22;20488;-91
2022/11/26 14:36:27;;;;;;;66.10;39.03;;;230.50;2252.80;;;;;;6283328;22;20030;-90
2022/11/26 14:39:04;;;;;;;64.82;40.38;;;230.50;2252.80;;;;;;6283473;22;20007;-92
2022/11/26 14:41:49;;;;;;;53.63;31.98;;;230.50;2252.80;;;;;;6283336;22;20021;-93
2022/11/26 14:44:16;;;;;;;56.38;34.03;;;230.50;2252.80;;;;;;6282909;22;19995;-91
2022/11/26 14:46:44;;;;;;;51.22;30.63;;;230.40;2252.80;;;;;;6283261;22;20006;-91
2022/11/26 14:49:19;;;;;;;62.15;37.60;;;230.40;2252.80;;;;;;6282834;22;20460;-90
2022/11/26 14:51:48;;;;;;;83.72;48.58;;;230.40;2252.80;;;;;;6283215;22;20007;-91
2022/11/26 14:54:34;;;;;;;83.82;50.95;;;230.40;2252.80;;;;;;6282613;22;20064;-90
2022/11/26 14:57:12;;;;;;;95.78;57.75;;;230.40;2252.80;;;;;;6283252;22;20060;-90
2022/11/26 15:00:01;;;;;;;99.72;53.35;;;230.40;2252.80;;;;;;6282932;22;20003;-89
2022/11/26 15:02:29;;;;;;;86.45;49.80;;;230.40;2252.80;;;;;;6283056;22;20004;-91
2022/11/26 15:05:03;;;;;;;103.57;67.60;;;230.40;2252.80;;;;;;6283177;22;20007;-90
2022/11/26 15:07:30;;;;;;;82.25;50.03;;;205.70;2252.80;;;;;;6284330;22;20053;-91
2022/11/26 15:10:06;;;;;;;72.38;43.53;;;205.60;2252.80;;;;;;6283251;22;20011;-91
2022/11/26 15:12:34;;;;;;;91.60;59.33;;;;;;;;;;6283640;22;20007;-91
2022/11/26 15:15:01;;;;;;;117.47;71.95;;;;;;;;;;6283160;22;20383;-93
2022/11/26 15:17:29;;;;;;;100.35;66.90;;;;;;;;;;6282663;22;20006;-91
2022/11/26 15:19:57;;;;;;;93.85;59.15;;;;;;;;;;6283221;22;20003;-93
2022/11/26 15:22:43;;;;;;;139.05;82.80;;;205.50;2252.80;;;;;;6282200;22;20421;-90
2022/11/26 15:25:17;;;;;;;130.82;80.68;;;205.30;2252.80;;;;;;6261249;22;20003;-90
2022/11/26 15:28:02;;;;;;;138.05;82.97;;;205.30;2252.80;;;;;;6284444;22;20007;-92
2022/11/26 15:30:37;;;;;;;124.65;74.20;;;205.20;2252.80;;;;;;6286009;22;20003;-92
2022/11/26 15:33:06;;;;;;;95.90;61.22;;;205.00;2252.80;;;;;;6286389;22;20023;-91
2022/11/26 15:35:32;;;;;;;94.30;61.85;;;205.20;2252.80;;;;;;6283141;22;20007;-92
2022/11/26 15:37:58;;;;;;;122.53;76.43;;;205.20;2252.80;;;;;;6282557;22;20019;-92
2022/11/26 15:40:49;;;;;;;104.50;65.05;;;205.10;2252.80;;;;;;6282659;22;20007;-94
2022/11/26 15:43:33;;;;;;;61.40;41.42;;;205.10;2252.80;;;;;;6283546;22;20000;-93
2022/11/26 15:46:03;;;;;;;54.75;35.15;;;205.00;2252.80;;;;;;6283364;22;20030;-92
2022/11/26 15:48:36;;;;;;;96.70;62.47;;;204.90;2252.80;;;;;;6310216;22;19999;-91
2022/11/26 15:51:04;;;;;;;100.40;63.90;;;180.10;2252.80;;;;;;6282715;22;20011;-91
2022/11/26 15:53:38;;;;;;;110.35;68.10;;;204.80;2252.80;;;;;;6282505;22;20025;-90
2022/11/26 15:56:07;;;;;;;86.80;55.97;;;204.80;2252.80;;;;;;6282236;22;20003;-91
2022/11/26 15:58:37;;;;;;;71.43;47.90;;;204.80;2252.80;;;;;;6309547;22;20450;-94
2022/11/26 16:01:09;;;;;;;97.95;62.92;;;180.10;2252.80;;;;;;6282222;22;20010;-91
2022/11/26 16:03:38;;;;;;;80.20;49.30;;;180.10;2252.80;;;;;;6282708;22;20486;-94
2022/11/26 16:06:07;;;;;;;66.13;42.97;;;180.00;2252.80;;;;;;6309463;22;19995;-91
2022/11/26 16:08:33;;;;;;;69.05;44.58;;;180.10;2252.80;;;;;;6282097;22;20006;-92
2022/11/26 16:11:02;;;;;;;59.17;39.25;;;180.10;2252.80;;;;;;6282682;22;20007;-93
2022/11/26 16:13:33;;;;;;;51.65;33.65;;;180.00;2252.80;;;;;;6281974;22;20033;-94
2022/11/26 16:16:08;;;;;;;86.20;44.65;;;179.90;2252.80;;;;;;6281885;22;19999;-94
2022/11/26 16:18:46;;;;;;;81.50;46.13;;;180.00;2252.80;;;;;;6282350;22;20027;-91
2022/11/26 16:21:24;;;;;;;78.32;45.58;;;180.00;2252.80;;;;;;6281812;22;20010;-92
2022/11/26 16:24:05;;;;;;;73.13;45.90;;;179.90;2252.80;;;;;;6282269;22;20090;-92
2022/11/26 16:27:11;;;;;;;129.95;68.60;;;179.80;2252.80;;;;;;6309291;22;20060;-91
2022/11/26 16:29:37;;;;;;;125.85;65.38;;;179.80;2252.80;;;;;;6260563;22;20006;-91
2022/11/26 16:32:03;;;;;;;94.47;60.97;;;179.80;2252.80;;;;;;6282645;22;19999;-92
2022/11/26 16:34:29;;;;;;;89.20;52.97;;;179.80;2252.80;;;;;;6282348;22;20313;-91
2022/11/26 16:37:15;;;;;;;119.38;67.97;;;179.80;2252.80;;;;;;6282362;22;20007;-92
2022/11/26 16:39:41;;;;;;;165.32;89.38;;;179.70;2252.80;;;;;;6282369;22;20261;-92
2022/11/26 16:42:19;;;;;;;111.95;65.93;;;179.60;2252.80;;;;;;6282077;22;20467;-91
2022/11/26 16:44:46;;;;;;;105.20;64.70;;;179.50;2252.80;;;;;;6282472;22;19995;-91
2022/11/26 16:47:28;;;;;;;125.00;76.68;;;179.50;2252.80;;;;;;6282117;22;20003;-92
2022/11/26 16:49:54;;;;;;;175.35;104.78;;;179.50;2252.80;;;;;;6282174;22;20014;-94
2022/11/26 16:52:20;;;;;;;126.00;75.22;;;179.50;2252.80;;;;;;6282274;22;20078;-94
2022/11/26 16:54:47;;;;;;;103.78;60.15;;;179.50;2252.80;;;;;;6281996;22;20512;-92
2022/11/26 16:57:15;;;;;;;82.75;52.22;;;179.40;2252.80;;;;;;6309074;22;20044;-93
2022/11/26 16:59:43;;;;;;;102.55;58.28;;;179.50;2252.80;;;;;;6282398;22;20379;-94
2022/11/26 17:02:15;;;;;;;163.70;94.50;;;179.90;2252.80;;;;;;6281849;22;20078;-93
2022/11/26 17:04:55;;;;;;;270.35;163.68;;;179.40;2252.80;;;;;;6282693;22;20003;-94
2022/11/26 17:07:35;;;;;;;190.50;129.48;;;179.30;2252.80;;;;;;6283049;22;20053;-91
2022/11/26 17:10:02;;;;;;;162.20;108.00;;;179.50;2252.80;;;;;;6282095;22;20310;-93
2022/11/26 17:12:28;;;;;;;153.45;103.43;;;179.50;2252.80;;;;;;6282253;22;20413;-92
2022/11/26 17:14:54;;;;;;;126.72;87.55;;;179.50;2252.80;;;;;;6281901;22;20011;-92
2022/11/26 17:17:28;;;;;;;136.50;86.43;;;179.50;2252.80;;;;;;6281580;22;20125;-93
2022/11/26 17:19:53;;;;;;;140.20;89.68;;;179.50;2252.80;;;;;;6282083;22;20003;-92
2022/11/26 17:22:36;;;;;;;154.68;98.00;;;179.50;2252.80;;;;;;6309204;22;20049;-92
2022/11/26 17:25:02;;;;;;;;;;;179.30;2252.80;;;;;;6282487;22;19999;-92
2022/11/26 17:27:28;;;;;;;122.95;80.90;;;179.30;2252.80;;;;;;6309354;22;19899;-91
2022/11/26 17:29:54;;;;;;;142.15;94.70;;;179.20;2252.80;;;;;;6281673;22;20039;-93
2022/11/26 17:32:20;;;;;;;169.27;111.28;;;179.20;2252.80;;;;;;6281417;22;20474;-92
2022/11/26 17:34:47;;;;;;;177.35;114.78;;;179.30;2252.80;;;;;;6281853;22;20005;-91
2022/11/26 17:37:21;;;;;;;154.32;105.82;;;179.40;2252.80;;;;;;6309085;22;20002;-91
2022/11/26 17:39:47;;;;;;;135.43;89.18;;;179.30;2252.80;;;;;;6281704;22;20003;-92
2022/11/26 17:42:13;;;;;;;115.95;75.13;;;179.30;2252.80;;;;;;6281610;22;20082;-93
2022/11/26 17:44:39;;;;;;;118.20;77.00;;;179.20;2252.80;;;;;;6281625;22;20000;-92
2022/11/26 17:47:13;;;;;;;115.65;76.20;;;179.20;2252.80;;;;;;6281715;22;20010;-93
2022/11/26 17:49:39;;;;;;;135.13;81.15;;;179.20;2252.80;;;;;;6281748;22;19995;-94
2022/11/26 17:52:05;;;;;;;126.70;78.10;;;154.50;2252.80;;;;;;6281299;22;20006;-91
2022/11/26 17:54:31;;;;;;;120.07;80.90;;;154.50;2252.80;;;;;;6281605;22;20490;-94
2022/11/26 17:56:56;;;;;;;163.60;100.03;;;179.20;2252.80;;;;;;6281861;22;20034;-91
2022/11/26 17:59:22;;;;;;;158.70;96.68;;;154.50;2252.80;;;;;;6281444;22;19995;-91
2022/11/26 18:01:48;;;;;;;155.65;93.40;;;154.50;2252.80;;;;;;6281463;22;19999;-93
2022/11/26 18:04:14;;;;;;;106.00;67.47;;;154.50;2252.80;;;;;;6281267;22;20003;-91
2022/11/26 18:06:57;;;;;;;85.70;57.10;;;154.50;2252.80;;;;;;6281637;22;20059;-92
2022/11/26 18:09:23;;;;;;;84.72;55.85;;;154.40;2252.80;;;;;;6280902;22;20011;-92
2022/11/26 18:11:52;;;;;;;88.05;60.30;;;154.50;2252.80;;;;;;6281361;22;20015;-91
2022/11/26 18:14:18;;;;;;;87.78;56.63;;;154.50;2252.80;;;;;;6281192;22;20046;-94
2022/11/26 18:16:44;;;;;;;93.38;60.20;;;154.50;2252.80;;;;;;6281091;22;20006;-92
2022/11/26 18:19:12;;;;;;;92.15;61.55;;;154.40;2252.80;;;;;;6280339;22;20294;-91
2022/11/26 18:21:38;;;;;;;93.20;59.47;;;154.40;2252.80;;;;;;6280865;22;20010;-90
2022/11/26 18:24:05;;;;;;;104.03;61.67;;;154.30;2252.80;;;;;;6280002;22;19996;-91
2022/11/26 18:26:31;;;;;;;99.22;64.13;;;154.20;2252.80;;;;;;6281187;22;20015;-91
2022/11/26 18:29:00;;;;;;;92.57;60.38;;;154.30;2252.80;;;;;;6283195;22;19999;-93
2022/11/26 18:31:27;;;;;;;84.80;51.90;;;154.20;2252.80;;;;;;6283013;22;20042;-91
2022/11/26 18:33:53;;;;;;;90.00;54.55;;;154.20;2252.80;;;;;;6283351;22;20460;-91
2022/11/26 18:36:19;;;;;;;103.22;60.75;;;154.30;2252.80;;;;;;6283221;22;20069;-91
2022/11/26 18:38:45;;;;;;;107.25;67.53;;;154.20;2252.80;;;;;;6282950;22;20413;-93
2022/11/26 18:41:11;;;;;;;117.38;73.30;;;154.30;2252.80;;;;;;6283095;22;20014;-91
2022/11/26 18:43:38;;;;;;;112.50;75.40;;;154.20;2252.80;;;;;;6283147;22;20007;-91
2022/11/26 18:46:09;;;;;;;117.28;72.13;;;154.10;2252.80;;;;;;6282829;22;20023;-92
2022/11/26 18:48:37;;;;;;;96.18;63.65;;;153.90;2252.80;;;;;;6283213;22;20025;-92
2022/11/26 18:51:04;;;;;;;90.35;58.60;;;154.00;2252.80;;;;;;6282435;22;20010;-92
2022/11/26 18:53:30;;;;;;;90.85;58.70;;;154.00;2252.80;;;;;;6283005;22;20055;-91
2022/11/26 18:55:57;;;;;;;93.40;58.28;;;154.40;2252.80;;;;;;6282889;22;20007;-92
2022/11/26 18:58:24;;;;;;;154.25;90.65;;;153.90;2252.80;;;;;;6282503;22;20010;-90
2022/11/26 19:00:52;;;;;;;129.48;79.53;;;153.90;2252.80;;;;;;6283063;22;20447;-92
2022/11/26 19:03:18;;;;;;;100.90;63.80;;;153.90;2252.80;;;;;;6283022;22;20023;-91
2022/11/26 19:05:44;;;;;;;116.25;72.68;;;153.90;2252.80;;;;;;6283012;22;20003;-92
2022/11/26 19:08:12;;;;;;;112.40;70.75;;;153.80;2252.80;;;;;;6283045;22;20068;-91
2022/11/26 19:10:39;;;;;;;107.45;77.13;;;153.80;2252.80;;;;;;6310100;22;20079;-92
2022/11/26 19:13:05;;;;;;;103.82;69.35;;;153.90;2252.80;;;;;;6282640;22;20409;-93
2022/11/26 19:15:30;;;;;;;112.68;70.47;;;153.80;2252.80;;;;;;6310156;22;19999;-93
2022/11/26 19:17:56;;;;;;;100.05;64.68;;;153.60;2252.80;;;;;;6283147;22;20026;-92
2022/11/26 19:20:22;;;;;;;112.43;69.18;;;153.60;2252.80;;;;;;6282853;22;20029;-92
2022/11/26 19:22:48;;;;;;;98.63;66.45;;;153.70;2252.80;;;;;;6282944;22;20086;-92
2022/11/26 19:25:14;;;;;;;105.30;66.05;;;153.70;2252.80;;;;;;6283358;22;19996;-92
2022/11/26 19:27:39;;;;;;;100.13;62.33;;;153.70;2252.80;;;;;;6283399;22;19995;-91
2022/11/26 19:30:08;;;;;;;97.60;62.38;;;153.60;2252.80;;;;;;6310297;22;20014;-92
2022/11/26 19:32:34;;;;;;;97.68;62.45;;;153.60;2252.80;;;;;;6284298;22;20045;-92
2022/11/26 19:34:59;;;;;;;99.90;63.58;;;153.60;2252.80;;;;;;6283385;22;19995;-92
2022/11/26 19:37:25;;;;;;;99.35;63.20;;;153.70;2252.80;;;;;;6284178;22;20000;-93
2022/11/26 19:39:51;;;;;;;91.50;58.50;;;153.70;2252.80;;;;;;6284754;22;20007;-90
2022/11/26 19:42:17;;;;;;;84.40;57.10;;;153.70;2252.80;;;;;;6284876;22;20053;-91
2022/11/26 19:44:43;;;;;;;86.70;57.63;;;153.60;2252.80;;;;;;6282873;22;19996;-91
2022/11/26 19:47:09;;;;;;;102.10;63.92;;;153.60;2252.80;;;;;;6282557;22;20014;-91
2022/11/26 19:49:35;;;;;;;145.20;89.75;;;153.60;2252.80;;;;;;6282700;22;20003;-91
2022/11/26 19:52:00;;;;;;;123.78;78.10;;;128.80;2252.80;;;;;;6282854;22;20007;-92
2022/11/26 19:54:26;;;;;;;154.55;88.07;;;128.70;2252.80;;;;;;6284228;22;20074;-93
2022/11/26 19:56:52;;;;;;;113.25;70.53;;;128.70;2252.80;;;;;;6285426;22;20451;-92
2022/11/26 19:59:20;;;;;;;127.35;79.10;;;128.60;2252.80;;;;;;6284138;22;20002;-91
2022/11/26 20:01:46;;;;;;;134.23;83.28;;;128.70;2252.80;;;;;;6335630;22;19994;-93
2022/11/26 20:04:15;;;;;;;120.47;74.38;;;128.60;2252.80;;;;;;6310495;22;19988;-92
2022/11/26 20:06:41;;;;;;;113.78;75.50;;;128.70;2252.80;;;;;;6310439;22;19987;-90
2022/11/26 20:09:10;;;;;;;121.95;78.15;;;128.80;2252.80;;;;;;6309813;22;20002;-92
2022/11/26 20:11:38;;;;;;;129.13;78.07;;;128.70;2252.80;;;;;;6310249;22;20959;-91
2022/11/26 20:14:08;;;;;;;207.63;118.35;;;128.70;2252.80;;;;;;6309985;22;20003;-92
2022/11/26 20:16:34;;;;;;;168.40;99.63;;;128.60;2252.80;;;;;;6298291;22;20086;-91
2022/11/26 20:19:01;;;;;;;161.38;100.68;;;128.60;2252.80;;;;;;6292686;22;20416;-92
2022/11/26 20:21:32;;;;;;;268.80;139.55;;;128.60;2252.80;;;;;;6292120;22;20003;-92
2022/11/26 20:24:04;;;;;;;216.68;122.70;;;128.50;2252.80;;;;;;6318370;22;19991;-91
2022/11/26 20:26:35;;;;;;;173.73;105.83;;;128.50;2252.80;;;;;;6292513;22;20086;-91
2022/11/26 20:29:04;;;;;;;150.15;95.95;;;128.50;2252.80;;;;;;6289181;22;20007;-91
2022/11/26 20:31:30;;;;;;;166.70;98.97;;;128.40;2252.80;;;;;;6315125;22;20035;-91
2022/11/26 20:33:56;;;;;;;173.82;112.50;;;128.10;2252.80;;;;;;6309490;22;19992;-93
2022/11/26 20:36:22;;;;;;;185.68;119.63;;;128.20;2252.80;;;;;;6281999;22;19999;-90
2022/11/26 20:38:59;;;;;;;196.55;126.95;;;128.20;2252.80;;;;;;6282074;22;20003;-91
2022/11/26 20:41:25;;;;;;;200.45;125.22;;;128.30;2252.80;;;;;;6256329;22;20514;-91
2022/11/26 20:43:54;;;;;;;179.30;115.55;;;128.40;2252.80;;;;;;6281449;22;20056;-92
2022/11/26 20:46:42;;;;;;;172.13;106.90;;;128.20;2252.80;;;;;;6309178;22;20003;-90
2022/11/26 20:53:00;;;;;;;137.43;82.05;;;128.20;2252.80;;;;;;6268936;22;20072;-91
2022/11/26 20:55:26;;;;;;;132.90;83.25;;;128.40;2252.80;;;;;;6229659;22;20015;-89
2022/11/26 20:57:52;;;;;;;111.60;69.80;;;128.20;2252.80;;;;;;6281947;22;20448;-89
2022/11/26 21:00:18;;;;;;;112.57;70.47;;;128.20;2252.80;;;;;;6282102;22;20007;-91
2022/11/26 21:02:45;;;;;;;106.88;66.63;;;128.20;2252.80;;;;;;6282164;22;20041;-91
2022/11/26 21:05:13;;;;;;;141.45;82.80;;;128.20;2252.80;;;;;;6282202;22;20010;-90
2022/11/26 21:08:08;;;;;;;156.90;93.07;;;128.50;2252.80;;;;;;6281512;22;20006;-91
2022/11/26 21:10:38;;;;;;;182.23;106.97;;;128.30;2252.80;;;;;;6281842;22;20015;-90
2022/11/26 21:13:05;;;;;;;158.52;92.90;;;128.10;2252.80;;;;;;6280844;22;20004;-90
2022/11/26 21:15:31;;;;;;;150.15;95.20;;;103.30;2227.20;;;;;;6281749;22;20078;-89
2022/11/26 21:17:57;;;;;;;174.90;105.75;;;103.30;2227.20;;;;;;6281556;22;20015;-90
2022/11/26 21:20:23;;;;;;;153.93;87.78;;;128.00;2252.80;;;;;;6281645;22;20306;-89
2022/11/26 21:22:49;;;;;;;140.35;83.15;;;103.20;2227.20;;;;;;6281399;22;20022;-90
2022/11/26 21:25:15;;;;;;;152.57;86.70;;;103.30;2227.20;;;;;;6281020;22;20007;-89
2022/11/26 21:27:41;;;;;;;178.75;95.90;;;103.30;2227.20;;;;;;6281589;22;20086;-90
2022/11/26 21:30:07;;;;;;;182.45;103.25;;;128.00;2252.80;;;;;;6281753;22;20042;-90
2022/11/26 21:32:34;;;;;;;157.68;96.90;;;128.10;2252.80;;;;;;6281570;22;19995;-92
2022/11/26 21:35:00;;;;;;;141.50;88.53;;;128.40;2252.80;;;;;;6255389;22;20008;-89
2022/11/26 21:37:29;;;;;;;138.70;80.47;;;103.00;2227.20;;;;;;6256058;22;20015;-89
2022/11/26 21:39:55;;;;;;;111.97;69.13;;;103.10;2227.20;;;;;;6255918;22;20003;-89
2022/11/26 21:42:21;;;;;;;105.53;62.42;;;103.00;2227.20;;;;;;6255982;22;20084;-89
2022/11/26 21:44:48;;;;;;;99.88;58.97;;;103.00;2227.20;;;;;;6281221;22;20356;-89
2022/11/26 21:47:14;;;;;;;94.93;57.83;;;103.10;2227.20;;;;;;6281448;22;20027;-89